sensor_id;sensor_type;location;lat;lon;timestamp;P1;durP1;ratioP1;P2;durP2;ratioP2
27728;SDS011;15126;42.186;24.340;2024-03-02T00:00:18;69.75;;;28.20;;
27728;SDS011;15126;42.186;24.340;2024-03-02T00:02:46;81.85;;;29.20;;
27728;SDS011;15126;42.186;24.340;2024-03-02T00:05:14;67.65;;;27.75;;
27728;SDS011;15126;42.186;24.340;2024-03-02T00:07:45;84.47;;;32.10;;
27728;SDS011;15126;42.186;24.340;2024-03-02T00:10:16;75.40;;;28.88;;
27728;SDS011;15126;42.186;24.340;2024-03-02T00:12:45;79.28;;;31.40;;
27728;SDS011;15126;42.186;24.340;2024-03-02T00:17:59;77.68;;;28.55;;
27728;SDS011;15126;42.186;24.340;2024-03-02T00:23:02;88.13;;;31.52;;
27728;SDS011;15126;42.186;24.340;2024-03-02T00:25:42;74.93;;;29.70;;
27728;SDS011;15126;42.186;24.340;2024-03-02T00:36:01;75.88;;;31.38;;
27728;SDS011;15126;42.186;24.340;2024-03-02T00:38:28;74.80;;;27.70;;
27728;SDS011;15126;42.186;24.340;2024-03-02T00:40:54;77.53;;;31.60;;
27728;SDS011;15126;42.186;24.340;2024-03-02T00:45:54;70.88;;;27.40;;
27728;SDS011;15126;42.186;24.340;2024-03-02T00:50:45;82.55;;;30.30;;
27728;SDS011;15126;42.186;24.340;2024-03-02T00:53:11;78.38;;;31.42;;
27728;SDS011;15126;42.186;24.340;2024-03-02T00:55:37;82.57;;;32.80;;
27728;SDS011;15126;42.186;24.340;2024-03-02T00:58:03;92.47;;;35.63;;
27728;SDS011;15126;42.186;24.340;2024-03-02T01:02:54;78.47;;;28.25;;
27728;SDS011;15126;42.186;24.340;2024-03-02T01:07:45;82.93;;;29.65;;
27728;SDS011;15126;42.186;24.340;2024-03-02T01:12:36;79.07;;;28.25;;
27728;SDS011;15126;42.186;24.340;2024-03-02T01:17:31;75.40;;;27.02;;
27728;SDS011;15126;42.186;24.340;2024-03-02T01:22:22;72.20;;;28.40;;
27728;SDS011;15126;42.186;24.340;2024-03-02T01:24:50;77.65;;;27.85;;
27728;SDS011;15126;42.186;24.340;2024-03-02T01:27:16;78.22;;;28.00;;
27728;SDS011;15126;42.186;24.340;2024-03-02T01:32:06;74.75;;;28.58;;
27728;SDS011;15126;42.186;24.340;2024-03-02T01:34:32;66.43;;;25.00;;
27728;SDS011;15126;42.186;24.340;2024-03-02T01:36:57;59.40;;;24.02;;
27728;SDS011;15126;42.186;24.340;2024-03-02T01:41:48;48.38;;;20.60;;
27728;SDS011;15126;42.186;24.340;2024-03-02T01:44:13;51.58;;;21.95;;
27728;SDS011;15126;42.186;24.340;2024-03-02T01:46:39;58.78;;;21.50;;
27728;SDS011;15126;42.186;24.340;2024-03-02T01:49:04;48.28;;;20.35;;
27728;SDS011;15126;42.186;24.340;2024-03-02T01:51:31;57.22;;;21.08;;
27728;SDS011;15126;42.186;24.340;2024-03-02T01:56:22;46.35;;;18.83;;
27728;SDS011;15126;42.186;24.340;2024-03-02T01:58:47;47.13;;;20.75;;
27728;SDS011;15126;42.186;24.340;2024-03-02T02:03:38;47.65;;;19.15;;
27728;SDS011;15126;42.186;24.340;2024-03-02T02:06:03;50.83;;;21.33;;
27728;SDS011;15126;42.186;24.340;2024-03-02T02:08:29;50.92;;;19.30;;
27728;SDS011;15126;42.186;24.340;2024-03-02T02:10:55;51.83;;;22.25;;
27728;SDS011;15126;42.186;24.340;2024-03-02T02:13:20;53.58;;;20.67;;
27728;SDS011;15126;42.186;24.340;2024-03-02T02:15:46;47.97;;;21.67;;
27728;SDS011;15126;42.186;24.340;2024-03-02T02:18:11;54.72;;;23.70;;
27728;SDS011;15126;42.186;24.340;2024-03-02T02:20:36;54.47;;;22.27;;
27728;SDS011;15126;42.186;24.340;2024-03-02T02:23:02;66.22;;;22.98;;
27728;SDS011;15126;42.186;24.340;2024-03-02T02:25:30;63.97;;;23.83;;
27728;SDS011;15126;42.186;24.340;2024-03-02T02:27:57;71.43;;;26.90;;
27728;SDS011;15126;42.186;24.340;2024-03-02T02:30:23;69.57;;;24.98;;
27728;SDS011;15126;42.186;24.340;2024-03-02T02:32:51;64.60;;;24.35;;
27728;SDS011;15126;42.186;24.340;2024-03-02T02:37:43;70.82;;;24.38;;
27728;SDS011;15126;42.186;24.340;2024-03-02T02:40:11;73.82;;;25.30;;
27728;SDS011;15126;42.186;24.340;2024-03-02T02:42:37;83.50;;;27.05;;
27728;SDS011;15126;42.186;24.340;2024-03-02T02:45:03;78.65;;;28.35;;
27728;SDS011;15126;42.186;24.340;2024-03-02T02:47:29;87.57;;;28.52;;
27728;SDS011;15126;42.186;24.340;2024-03-02T02:49:55;80.35;;;30.58;;
27728;SDS011;15126;42.186;24.340;2024-03-02T02:52:20;82.00;;;28.13;;
27728;SDS011;15126;42.186;24.340;2024-03-02T02:54:46;87.88;;;30.77;;
27728;SDS011;15126;42.186;24.340;2024-03-02T02:57:12;88.95;;;30.38;;
27728;SDS011;15126;42.186;24.340;2024-03-02T02:59:37;78.97;;;28.85;;
27728;SDS011;15126;42.186;24.340;2024-03-02T03:02:02;82.20;;;29.17;;
27728;SDS011;15126;42.186;24.340;2024-03-02T03:04:28;75.90;;;28.50;;
27728;SDS011;15126;42.186;24.340;2024-03-02T03:06:53;80.40;;;27.23;;
27728;SDS011;15126;42.186;24.340;2024-03-02T03:09:19;80.57;;;28.48;;
27728;SDS011;15126;42.186;24.340;2024-03-02T03:11:44;76.40;;;26.92;;
27728;SDS011;15126;42.186;24.340;2024-03-02T03:14:10;74.78;;;26.50;;
27728;SDS011;15126;42.186;24.340;2024-03-02T03:19:00;68.72;;;25.33;;
27728;SDS011;15126;42.186;24.340;2024-03-02T03:21:26;75.10;;;26.65;;
27728;SDS011;15126;42.186;24.340;2024-03-02T03:23:51;70.63;;;25.98;;
27728;SDS011;15126;42.186;24.340;2024-03-02T03:26:17;66.43;;;25.77;;
27728;SDS011;15126;42.186;24.340;2024-03-02T03:28:42;83.50;;;28.00;;
27728;SDS011;15126;42.186;24.340;2024-03-02T03:31:07;80.45;;;28.98;;
27728;SDS011;15126;42.186;24.340;2024-03-02T03:33:33;71.90;;;26.27;;
27728;SDS011;15126;42.186;24.340;2024-03-02T03:38:24;85.65;;;27.95;;
27728;SDS011;15126;42.186;24.340;2024-03-02T03:40:50;89.72;;;28.00;;
27728;SDS011;15126;42.186;24.340;2024-03-02T03:43:15;89.68;;;31.88;;
27728;SDS011;15126;42.186;24.340;2024-03-02T03:45:41;77.60;;;27.60;;
27728;SDS011;15126;42.186;24.340;2024-03-02T03:48:06;78.82;;;27.27;;
27728;SDS011;15126;42.186;24.340;2024-03-02T03:50:32;80.80;;;25.55;;
27728;SDS011;15126;42.186;24.340;2024-03-02T03:52:57;93.90;;;26.42;;
27728;SDS011;15126;42.186;24.340;2024-03-02T03:55:23;86.05;;;29.02;;
27728;SDS011;15126;42.186;24.340;2024-03-02T03:57:48;85.93;;;26.25;;
27728;SDS011;15126;42.186;24.340;2024-03-02T04:00:14;87.97;;;27.13;;
27728;SDS011;15126;42.186;24.340;2024-03-02T04:02:39;83.72;;;23.58;;
27728;SDS011;15126;42.186;24.340;2024-03-02T04:05:05;86.90;;;25.52;;
27728;SDS011;15126;42.186;24.340;2024-03-02T04:07:34;84.38;;;26.13;;
27728;SDS011;15126;42.186;24.340;2024-03-02T04:10:05;83.93;;;24.70;;
27728;SDS011;15126;42.186;24.340;2024-03-02T04:12:33;93.78;;;25.85;;
27728;SDS011;15126;42.186;24.340;2024-03-02T04:15:01;91.80;;;27.55;;
27728;SDS011;15126;42.186;24.340;2024-03-02T04:17:27;84.90;;;25.38;;
27728;SDS011;15126;42.186;24.340;2024-03-02T04:19:52;92.78;;;24.58;;
27728;SDS011;15126;42.186;24.340;2024-03-02T04:22:18;79.93;;;26.10;;
27728;SDS011;15126;42.186;24.340;2024-03-02T04:24:43;90.57;;;24.55;;
27728;SDS011;15126;42.186;24.340;2024-03-02T04:27:08;85.47;;;24.98;;
27728;SDS011;15126;42.186;24.340;2024-03-02T04:29:34;88.80;;;25.80;;
27728;SDS011;15126;42.186;24.340;2024-03-02T04:31:59;100.13;;;25.75;;
27728;SDS011;15126;42.186;24.340;2024-03-02T04:34:25;100.90;;;25.05;;
27728;SDS011;15126;42.186;24.340;2024-03-02T04:36:50;105.90;;;25.98;;
27728;SDS011;15126;42.186;24.340;2024-03-02T04:39:16;96.85;;;26.13;;
27728;SDS011;15126;42.186;24.340;2024-03-02T04:41:41;96.13;;;27.23;;
27728;SDS011;15126;42.186;24.340;2024-03-02T04:44:07;111.05;;;28.42;;
27728;SDS011;15126;42.186;24.340;2024-03-02T04:46:33;99.15;;;24.95;;
27728;SDS011;15126;42.186;24.340;2024-03-02T04:48:58;138.77;;;36.92;;
27728;SDS011;15126;42.186;24.340;2024-03-02T04:51:24;113.13;;;32.65;;
27728;SDS011;15126;42.186;24.340;2024-03-02T04:53:49;100.97;;;27.40;;
27728;SDS011;15126;42.186;24.340;2024-03-02T04:56:15;93.97;;;23.92;;
27728;SDS011;15126;42.186;24.340;2024-03-02T04:58:46;95.55;;;25.90;;
27728;SDS011;15126;42.186;24.340;2024-03-02T05:01:11;93.40;;;24.17;;
27728;SDS011;15126;42.186;24.340;2024-03-02T05:03:37;89.15;;;26.55;;
27728;SDS011;15126;42.186;24.340;2024-03-02T05:06:03;87.72;;;26.23;;
27728;SDS011;15126;42.186;24.340;2024-03-02T05:08:28;81.13;;;23.80;;
27728;SDS011;15126;42.186;24.340;2024-03-02T05:10:54;80.85;;;24.27;;
27728;SDS011;15126;42.186;24.340;2024-03-02T05:13:19;79.57;;;20.35;;
27728;SDS011;15126;42.186;24.340;2024-03-02T05:15:49;81.07;;;20.90;;
27728;SDS011;15126;42.186;24.340;2024-03-02T05:18:14;70.63;;;19.75;;
27728;SDS011;15126;42.186;24.340;2024-03-02T05:20:40;70.82;;;20.55;;
27728;SDS011;15126;42.186;24.340;2024-03-02T05:23:06;77.30;;;21.50;;
27728;SDS011;15126;42.186;24.340;2024-03-02T05:25:31;69.55;;;19.58;;
27728;SDS011;15126;42.186;24.340;2024-03-02T05:27:57;68.13;;;18.85;;
27728;SDS011;15126;42.186;24.340;2024-03-02T05:30:22;67.07;;;21.00;;
27728;SDS011;15126;42.186;24.340;2024-03-02T05:32:48;73.20;;;21.38;;
27728;SDS011;15126;42.186;24.340;2024-03-02T05:35:15;68.57;;;20.20;;
27728;SDS011;15126;42.186;24.340;2024-03-02T05:37:41;70.55;;;20.52;;
27728;SDS011;15126;42.186;24.340;2024-03-02T05:40:06;62.28;;;19.77;;
27728;SDS011;15126;42.186;24.340;2024-03-02T05:42:35;68.32;;;22.40;;
27728;SDS011;15126;42.186;24.340;2024-03-02T05:45:03;58.03;;;19.77;;
27728;SDS011;15126;42.186;24.340;2024-03-02T05:47:29;48.70;;;17.10;;
27728;SDS011;15126;42.186;24.340;2024-03-02T05:49:54;63.40;;;22.17;;
27728;SDS011;15126;42.186;24.340;2024-03-02T05:52:20;56.85;;;20.15;;
27728;SDS011;15126;42.186;24.340;2024-03-02T05:57:11;66.63;;;25.00;;
27728;SDS011;15126;42.186;24.340;2024-03-02T05:59:59;59.85;;;22.10;;
27728;SDS011;15126;42.186;24.340;2024-03-02T06:04:49;87.88;;;33.83;;
27728;SDS011;15126;42.186;24.340;2024-03-02T06:07:15;91.35;;;36.08;;
27728;SDS011;15126;42.186;24.340;2024-03-02T06:12:06;47.60;;;18.92;;
27728;SDS011;15126;42.186;24.340;2024-03-02T06:14:31;45.53;;;16.27;;
27728;SDS011;15126;42.186;24.340;2024-03-02T06:19:22;110.57;;;40.03;;
27728;SDS011;15126;42.186;24.340;2024-03-02T06:21:47;67.43;;;23.35;;
27728;SDS011;15126;42.186;24.340;2024-03-02T06:26:38;52.25;;;19.55;;
27728;SDS011;15126;42.186;24.340;2024-03-02T06:29:04;49.38;;;18.33;;
27728;SDS011;15126;42.186;24.340;2024-03-02T06:31:29;46.03;;;18.33;;
27728;SDS011;15126;42.186;24.340;2024-03-02T06:33:55;49.35;;;17.88;;
27728;SDS011;15126;42.186;24.340;2024-03-02T06:36:20;50.15;;;19.35;;
27728;SDS011;15126;42.186;24.340;2024-03-02T06:41:11;47.47;;;17.50;;
27728;SDS011;15126;42.186;24.340;2024-03-02T06:43:36;48.08;;;17.17;;
27728;SDS011;15126;42.186;24.340;2024-03-02T06:46:03;43.00;;;17.33;;
27728;SDS011;15126;42.186;24.340;2024-03-02T06:48:30;47.45;;;20.33;;
27728;SDS011;15126;42.186;24.340;2024-03-02T06:50:55;53.00;;;21.58;;
27728;SDS011;15126;42.186;24.340;2024-03-02T06:58:13;34.03;;;14.30;;
27728;SDS011;15126;42.186;24.340;2024-03-02T07:00:42;40.85;;;14.95;;
27728;SDS011;15126;42.186;24.340;2024-03-02T07:03:10;35.03;;;12.88;;
27728;SDS011;15126;42.186;24.340;2024-03-02T07:08:01;37.38;;;16.48;;
27728;SDS011;15126;42.186;24.340;2024-03-02T07:10:28;32.97;;;14.75;;
27728;SDS011;15126;42.186;24.340;2024-03-02T07:15:19;46.95;;;18.77;;
27728;SDS011;15126;42.186;24.340;2024-03-02T07:17:53;41.15;;;16.30;;
27728;SDS011;15126;42.186;24.340;2024-03-02T07:22:50;40.03;;;16.55;;
27728;SDS011;15126;42.186;24.340;2024-03-02T07:27:41;36.20;;;14.93;;
27728;SDS011;15126;42.186;24.340;2024-03-02T07:32:32;27.60;;;12.00;;
27728;SDS011;15126;42.186;24.340;2024-03-02T07:34:58;31.77;;;13.07;;
27728;SDS011;15126;42.186;24.340;2024-03-02T07:39:49;28.55;;;12.57;;
27728;SDS011;15126;42.186;24.340;2024-03-02T07:42:17;28.48;;;12.65;;
27728;SDS011;15126;42.186;24.340;2024-03-02T07:47:09;20.63;;;10.48;;
27728;SDS011;15126;42.186;24.340;2024-03-02T07:52:00;24.40;;;11.18;;
27728;SDS011;15126;42.186;24.340;2024-03-02T07:54:25;27.75;;;11.38;;
27728;SDS011;15126;42.186;24.340;2024-03-02T07:59:17;25.70;;;12.18;;
27728;SDS011;15126;42.186;24.340;2024-03-02T08:04:08;21.70;;;10.00;;
27728;SDS011;15126;42.186;24.340;2024-03-02T08:08:59;20.30;;;11.43;;
27728;SDS011;15126;42.186;24.340;2024-03-02T08:11:26;23.88;;;12.40;;
27728;SDS011;15126;42.186;24.340;2024-03-02T08:13:56;20.02;;;9.45;;
27728;SDS011;15126;42.186;24.340;2024-03-02T08:18:50;15.60;;;8.27;;
27728;SDS011;15126;42.186;24.340;2024-03-02T08:21:17;17.30;;;9.48;;
27728;SDS011;15126;42.186;24.340;2024-03-02T08:26:11;17.83;;;10.00;;
27728;SDS011;15126;42.186;24.340;2024-03-02T08:31:03;18.70;;;9.35;;
27728;SDS011;15126;42.186;24.340;2024-03-02T08:33:29;20.58;;;10.35;;
27728;SDS011;15126;42.186;24.340;2024-03-02T08:38:20;15.35;;;8.48;;
27728;SDS011;15126;42.186;24.340;2024-03-02T08:43:11;17.98;;;8.77;;
27728;SDS011;15126;42.186;24.340;2024-03-02T08:48:05;18.27;;;10.32;;
27728;SDS011;15126;42.186;24.340;2024-03-02T08:50:33;20.95;;;9.93;;
27728;SDS011;15126;42.186;24.340;2024-03-02T08:52:59;23.08;;;11.07;;
27728;SDS011;15126;42.186;24.340;2024-03-02T08:57:50;19.88;;;10.60;;
27728;SDS011;15126;42.186;24.340;2024-03-02T09:00:16;20.80;;;10.10;;
27728;SDS011;15126;42.186;24.340;2024-03-02T09:02:45;21.45;;;9.65;;
27728;SDS011;15126;42.186;24.340;2024-03-02T09:05:11;19.05;;;9.65;;
27728;SDS011;15126;42.186;24.340;2024-03-02T09:10:07;22.50;;;9.95;;
27728;SDS011;15126;42.186;24.340;2024-03-02T09:12:36;19.27;;;10.68;;
27728;SDS011;15126;42.186;24.340;2024-03-02T09:15:03;20.85;;;10.23;;
27728;SDS011;15126;42.186;24.340;2024-03-02T09:17:29;20.90;;;10.88;;
27728;SDS011;15126;42.186;24.340;2024-03-02T09:22:20;17.50;;;9.35;;
27728;SDS011;15126;42.186;24.340;2024-03-02T09:29:37;22.80;;;10.52;;
27728;SDS011;15126;42.186;24.340;2024-03-02T09:32:03;26.08;;;11.73;;
27728;SDS011;15126;42.186;24.340;2024-03-02T09:34:31;22.27;;;11.00;;
27728;SDS011;15126;42.186;24.340;2024-03-02T09:36:59;22.55;;;10.45;;
27728;SDS011;15126;42.186;24.340;2024-03-02T09:39:25;20.55;;;10.38;;
27728;SDS011;15126;42.186;24.340;2024-03-02T09:41:50;22.13;;;11.82;;
27728;SDS011;15126;42.186;24.340;2024-03-02T09:46:42;25.27;;;16.42;;
27728;SDS011;15126;42.186;24.340;2024-03-02T09:49:09;29.95;;;16.05;;
27728;SDS011;15126;42.186;24.340;2024-03-02T09:51:38;26.95;;;13.07;;
27728;SDS011;15126;42.186;24.340;2024-03-02T09:54:07;26.08;;;13.45;;
27728;SDS011;15126;42.186;24.340;2024-03-02T09:56:33;26.48;;;12.93;;
27728;SDS011;15126;42.186;24.340;2024-03-02T09:58:59;20.85;;;11.68;;
27728;SDS011;15126;42.186;24.340;2024-03-02T10:03:52;23.33;;;11.40;;
27728;SDS011;15126;42.186;24.340;2024-03-02T10:08:48;20.25;;;9.57;;
27728;SDS011;15126;42.186;24.340;2024-03-02T10:11:38;24.63;;;11.40;;
27728;SDS011;15126;42.186;24.340;2024-03-02T10:14:04;21.73;;;11.40;;
27728;SDS011;15126;42.186;24.340;2024-03-02T10:16:46;23.17;;;12.20;;
27728;SDS011;15126;42.186;24.340;2024-03-02T10:22:15;20.73;;;10.98;;
27728;SDS011;15126;42.186;24.340;2024-03-02T10:24:41;25.45;;;13.05;;
27728;SDS011;15126;42.186;24.340;2024-03-02T10:27:17;22.00;;;12.02;;
27728;SDS011;15126;42.186;24.340;2024-03-02T10:29:50;20.05;;;10.32;;
27728;SDS011;15126;42.186;24.340;2024-03-02T10:32:16;23.63;;;12.70;;
27728;SDS011;15126;42.186;24.340;2024-03-02T10:37:08;22.15;;;11.32;;
27728;SDS011;15126;42.186;24.340;2024-03-02T10:39:34;23.05;;;12.50;;
27728;SDS011;15126;42.186;24.340;2024-03-02T10:42:05;24.20;;;11.88;;
27728;SDS011;15126;42.186;24.340;2024-03-02T10:44:39;20.02;;;10.52;;
27728;SDS011;15126;42.186;24.340;2024-03-02T10:47:05;20.75;;;10.75;;
27728;SDS011;15126;42.186;24.340;2024-03-02T10:49:37;23.27;;;12.20;;
27728;SDS011;15126;42.186;24.340;2024-03-02T10:52:11;18.88;;;9.05;;
27728;SDS011;15126;42.186;24.340;2024-03-02T10:54:37;16.58;;;9.18;;
27728;SDS011;15126;42.186;24.340;2024-03-02T10:57:05;12.25;;;7.45;;
27728;SDS011;15126;42.186;24.340;2024-03-02T10:59:37;14.35;;;7.97;;
27728;SDS011;15126;42.186;24.340;2024-03-02T11:02:16;15.90;;;9.30;;
27728;SDS011;15126;42.186;24.340;2024-03-02T11:04:42;24.40;;;13.73;;
27728;SDS011;15126;42.186;24.340;2024-03-02T11:07:10;18.75;;;9.30;;
27728;SDS011;15126;42.186;24.340;2024-03-02T11:09:45;13.43;;;8.05;;
27728;SDS011;15126;42.186;24.340;2024-03-02T11:12:19;11.70;;;6.40;;
27728;SDS011;15126;42.186;24.340;2024-03-02T11:14:54;17.25;;;7.28;;
27728;SDS011;15126;42.186;24.340;2024-03-02T11:17:23;12.25;;;6.40;;
27728;SDS011;15126;42.186;24.340;2024-03-02T11:19:49;10.07;;;6.60;;
27728;SDS011;15126;42.186;24.340;2024-03-02T11:22:18;9.10;;;5.45;;
27728;SDS011;15126;42.186;24.340;2024-03-02T11:24:48;7.30;;;4.68;;
27728;SDS011;15126;42.186;24.340;2024-03-02T11:27:20;10.02;;;5.22;;
27728;SDS011;15126;42.186;24.340;2024-03-02T11:30:14;10.07;;;5.25;;
27728;SDS011;15126;42.186;24.340;2024-03-02T11:32:55;43.95;;;13.52;;
27728;SDS011;15126;42.186;24.340;2024-03-02T11:35:21;60.30;;;18.77;;
27728;SDS011;15126;42.186;24.340;2024-03-02T11:37:46;44.45;;;16.58;;
27728;SDS011;15126;42.186;24.340;2024-03-02T11:40:12;28.35;;;11.32;;
27728;SDS011;15126;42.186;24.340;2024-03-02T11:42:38;44.50;;;16.30;;
27728;SDS011;15126;42.186;24.340;2024-03-02T11:45:04;20.80;;;8.35;;
27728;SDS011;15126;42.186;24.340;2024-03-02T11:47:31;16.77;;;9.38;;
27728;SDS011;15126;42.186;24.340;2024-03-02T11:49:56;22.58;;;10.25;;
27728;SDS011;15126;42.186;24.340;2024-03-02T11:52:24;15.75;;;8.48;;
27728;SDS011;15126;42.186;24.340;2024-03-02T11:54:52;18.10;;;9.68;;
27728;SDS011;15126;42.186;24.340;2024-03-02T11:57:19;14.57;;;6.97;;
27728;SDS011;15126;42.186;24.340;2024-03-02T11:59:47;12.15;;;7.35;;
27728;SDS011;15126;42.186;24.340;2024-03-02T12:02:15;9.98;;;6.32;;
27728;SDS011;15126;42.186;24.340;2024-03-02T12:04:42;12.57;;;6.63;;
27728;SDS011;15126;42.186;24.340;2024-03-02T12:07:08;13.10;;;6.72;;
27728;SDS011;15126;42.186;24.340;2024-03-02T12:09:34;14.48;;;8.00;;
27728;SDS011;15126;42.186;24.340;2024-03-02T12:14:33;12.35;;;8.20;;
27728;SDS011;15126;42.186;24.340;2024-03-02T12:16:59;12.65;;;6.97;;
27728;SDS011;15126;42.186;24.340;2024-03-02T12:19:25;13.23;;;7.93;;
27728;SDS011;15126;42.186;24.340;2024-03-02T12:21:52;12.18;;;7.35;;
27728;SDS011;15126;42.186;24.340;2024-03-02T12:24:18;13.40;;;7.50;;
27728;SDS011;15126;42.186;24.340;2024-03-02T12:26:44;15.85;;;7.18;;
27728;SDS011;15126;42.186;24.340;2024-03-02T12:29:10;15.82;;;8.90;;
27728;SDS011;15126;42.186;24.340;2024-03-02T12:31:36;13.68;;;7.03;;
27728;SDS011;15126;42.186;24.340;2024-03-02T12:34:02;11.02;;;6.95;;
27728;SDS011;15126;42.186;24.340;2024-03-02T12:36:29;12.40;;;6.88;;
27728;SDS011;15126;42.186;24.340;2024-03-02T12:38:54;12.32;;;6.45;;
27728;SDS011;15126;42.186;24.340;2024-03-02T12:41:20;10.63;;;5.97;;
27728;SDS011;15126;42.186;24.340;2024-03-02T12:43:46;12.10;;;7.65;;
27728;SDS011;15126;42.186;24.340;2024-03-02T12:46:11;11.13;;;6.80;;
27728;SDS011;15126;42.186;24.340;2024-03-02T12:48:37;17.08;;;9.43;;
27728;SDS011;15126;42.186;24.340;2024-03-02T12:51:06;15.38;;;8.38;;
27728;SDS011;15126;42.186;24.340;2024-03-02T12:53:31;13.55;;;7.93;;
27728;SDS011;15126;42.186;24.340;2024-03-02T12:55:57;12.05;;;7.18;;
27728;SDS011;15126;42.186;24.340;2024-03-02T12:58:23;24.70;;;11.77;;
27728;SDS011;15126;42.186;24.340;2024-03-02T13:00:49;15.90;;;9.35;;
27728;SDS011;15126;42.186;24.340;2024-03-02T13:03:14;18.05;;;10.05;;
27728;SDS011;15126;42.186;24.340;2024-03-02T13:05:47;19.52;;;10.38;;
27728;SDS011;15126;42.186;24.340;2024-03-02T13:08:15;19.35;;;9.85;;
27728;SDS011;15126;42.186;24.340;2024-03-02T13:10:40;28.95;;;13.68;;
27728;SDS011;15126;42.186;24.340;2024-03-02T13:13:06;36.25;;;18.50;;
27728;SDS011;15126;42.186;24.340;2024-03-02T13:15:32;30.98;;;15.20;;
27728;SDS011;15126;42.186;24.340;2024-03-02T13:17:59;18.70;;;9.95;;
27728;SDS011;15126;42.186;24.340;2024-03-02T13:20:32;17.30;;;9.93;;
27728;SDS011;15126;42.186;24.340;2024-03-02T13:22:57;12.70;;;7.75;;
27728;SDS011;15126;42.186;24.340;2024-03-02T13:25:23;14.18;;;8.63;;
27728;SDS011;15126;42.186;24.340;2024-03-02T13:27:51;17.65;;;10.75;;
27728;SDS011;15126;42.186;24.340;2024-03-02T13:30:17;17.25;;;9.32;;
27728;SDS011;15126;42.186;24.340;2024-03-02T13:32:42;12.73;;;6.97;;
27728;SDS011;15126;42.186;24.340;2024-03-02T13:35:08;13.15;;;7.53;;
27728;SDS011;15126;42.186;24.340;2024-03-02T13:37:39;13.63;;;7.93;;
27728;SDS011;15126;42.186;24.340;2024-03-02T13:40:04;22.80;;;8.32;;
27728;SDS011;15126;42.186;24.340;2024-03-02T13:42:30;13.90;;;7.97;;
27728;SDS011;15126;42.186;24.340;2024-03-02T13:44:56;12.43;;;7.50;;
27728;SDS011;15126;42.186;24.340;2024-03-02T13:47:22;16.92;;;9.02;;
27728;SDS011;15126;42.186;24.340;2024-03-02T13:49:47;13.27;;;7.63;;
27728;SDS011;15126;42.186;24.340;2024-03-02T13:52:14;14.00;;;7.43;;
27728;SDS011;15126;42.186;24.340;2024-03-02T13:54:42;12.70;;;7.03;;
27728;SDS011;15126;42.186;24.340;2024-03-02T13:57:11;12.57;;;7.70;;
27728;SDS011;15126;42.186;24.340;2024-03-02T13:59:38;12.10;;;6.43;;
27728;SDS011;15126;42.186;24.340;2024-03-02T14:02:07;11.48;;;6.28;;
27728;SDS011;15126;42.186;24.340;2024-03-02T14:04:36;12.80;;;7.70;;
27728;SDS011;15126;42.186;24.340;2024-03-02T14:07:05;12.02;;;6.25;;
27728;SDS011;15126;42.186;24.340;2024-03-02T14:09:35;10.63;;;6.63;;
27728;SDS011;15126;42.186;24.340;2024-03-02T14:12:01;10.75;;;6.05;;
27728;SDS011;15126;42.186;24.340;2024-03-02T14:14:27;11.77;;;7.00;;
27728;SDS011;15126;42.186;24.340;2024-03-02T14:16:53;13.77;;;8.13;;
27728;SDS011;15126;42.186;24.340;2024-03-02T14:19:20;11.65;;;7.60;;
27728;SDS011;15126;42.186;24.340;2024-03-02T14:21:46;10.93;;;6.38;;
27728;SDS011;15126;42.186;24.340;2024-03-02T14:24:12;11.98;;;5.63;;
27728;SDS011;15126;42.186;24.340;2024-03-02T14:26:38;11.75;;;6.55;;
27728;SDS011;15126;42.186;24.340;2024-03-02T14:29:04;13.40;;;6.43;;
27728;SDS011;15126;42.186;24.340;2024-03-02T14:33:56;13.95;;;7.32;;
27728;SDS011;15126;42.186;24.340;2024-03-02T14:36:22;12.20;;;6.25;;
27728;SDS011;15126;42.186;24.340;2024-03-02T14:38:47;8.05;;;4.80;;
27728;SDS011;15126;42.186;24.340;2024-03-02T14:41:13;24.15;;;12.02;;
27728;SDS011;15126;42.186;24.340;2024-03-02T14:43:39;25.10;;;12.07;;
27728;SDS011;15126;42.186;24.340;2024-03-02T14:48:34;22.35;;;10.23;;
27728;SDS011;15126;42.186;24.340;2024-03-02T14:51:05;14.80;;;6.80;;
27728;SDS011;15126;42.186;24.340;2024-03-02T14:53:31;9.70;;;6.32;;
27728;SDS011;15126;42.186;24.340;2024-03-02T14:55:56;12.30;;;6.05;;
27728;SDS011;15126;42.186;24.340;2024-03-02T14:58:22;11.70;;;6.80;;
27728;SDS011;15126;42.186;24.340;2024-03-02T15:00:48;20.55;;;10.98;;
27728;SDS011;15126;42.186;24.340;2024-03-02T15:03:16;12.63;;;7.32;;
27728;SDS011;15126;42.186;24.340;2024-03-02T15:05:41;14.15;;;8.25;;
27728;SDS011;15126;42.186;24.340;2024-03-02T15:08:07;14.38;;;6.95;;
27728;SDS011;15126;42.186;24.340;2024-03-02T15:10:32;15.55;;;8.70;;
27728;SDS011;15126;42.186;24.340;2024-03-02T15:13:01;11.95;;;6.78;;
27728;SDS011;15126;42.186;24.340;2024-03-02T15:15:26;22.98;;;11.35;;
27728;SDS011;15126;42.186;24.340;2024-03-02T15:17:52;10.93;;;6.68;;
27728;SDS011;15126;42.186;24.340;2024-03-02T15:22:43;13.18;;;7.85;;
27728;SDS011;15126;42.186;24.340;2024-03-02T15:27:34;11.05;;;6.07;;
27728;SDS011;15126;42.186;24.340;2024-03-02T15:30:06;13.93;;;6.65;;
27728;SDS011;15126;42.186;24.340;2024-03-02T15:32:32;12.55;;;7.32;;
27728;SDS011;15126;42.186;24.340;2024-03-02T15:34:59;10.02;;;6.07;;
27728;SDS011;15126;42.186;24.340;2024-03-02T15:37:24;10.07;;;6.38;;
27728;SDS011;15126;42.186;24.340;2024-03-02T15:39:50;13.48;;;8.35;;
27728;SDS011;15126;42.186;24.340;2024-03-02T15:44:51;10.65;;;5.75;;
27728;SDS011;15126;42.186;24.340;2024-03-02T15:47:24;12.18;;;7.25;;
27728;SDS011;15126;42.186;24.340;2024-03-02T15:49:50;12.50;;;6.68;;
27728;SDS011;15126;42.186;24.340;2024-03-02T15:52:15;12.52;;;6.88;;
27728;SDS011;15126;42.186;24.340;2024-03-02T15:54:43;12.45;;;7.22;;
27728;SDS011;15126;42.186;24.340;2024-03-02T15:57:18;12.25;;;7.07;;
27728;SDS011;15126;42.186;24.340;2024-03-02T15:59:44;13.68;;;6.07;;
27728;SDS011;15126;42.186;24.340;2024-03-02T16:02:10;13.02;;;7.93;;
27728;SDS011;15126;42.186;24.340;2024-03-02T16:04:36;18.35;;;8.52;;
27728;SDS011;15126;42.186;24.340;2024-03-02T16:07:04;13.02;;;8.88;;
27728;SDS011;15126;42.186;24.340;2024-03-02T16:09:29;15.48;;;8.30;;
27728;SDS011;15126;42.186;24.340;2024-03-02T16:11:55;16.35;;;9.02;;
27728;SDS011;15126;42.186;24.340;2024-03-02T16:14:20;13.18;;;8.13;;
27728;SDS011;15126;42.186;24.340;2024-03-02T16:16:46;18.40;;;9.05;;
27728;SDS011;15126;42.186;24.340;2024-03-02T16:19:11;18.98;;;10.73;;
27728;SDS011;15126;42.186;24.340;2024-03-02T16:24:02;20.52;;;10.48;;
27728;SDS011;15126;42.186;24.340;2024-03-02T16:26:28;16.77;;;10.05;;
27728;SDS011;15126;42.186;24.340;2024-03-02T16:31:19;19.45;;;10.25;;
27728;SDS011;15126;42.186;24.340;2024-03-02T16:33:44;18.50;;;9.82;;
27728;SDS011;15126;42.186;24.340;2024-03-02T16:36:10;18.60;;;9.82;;
27728;SDS011;15126;42.186;24.340;2024-03-02T16:43:26;18.08;;;10.10;;
27728;SDS011;15126;42.186;24.340;2024-03-02T16:45:52;16.10;;;9.98;;
27728;SDS011;15126;42.186;24.340;2024-03-02T16:48:17;19.38;;;10.63;;